Time;durP1;ratioP1;P1;durP2;ratioP2;P2;SDS_P1;SDS_P2;PMS_P1;PMS_P2;Temp;Humidity;BMP_temperature;BMP_pressure;BME280_temperature;BME280_humidity;BME280_pressure;Samples;Min_cycle;Max_cycle;Signal;HPM_P1;HPM_P2
2023/12/02 00:02:08;;;;;;;25.48;10.35;;;-2.20;99.90;;;;;;5027651;28;20313;-67
2023/12/02 00:04:35;;;;;;;23.95;10.00;;;-2.20;99.90;;;;;;5044935;28;20071;-67
2023/12/02 00:07:01;;;;;;;26.02;11.10;;;-2.10;99.90;;;;;;5031939;28;20535;-67
2023/12/02 00:09:27;;;;;;;24.55;9.25;;;-2.20;99.90;;;;;;5039828;28;20033;-66
2023/12/02 00:11:52;;;;;;;24.80;9.57;;;-2.10;99.90;;;;;;5037884;28;20392;-66
2023/12/02 00:14:18;;;;;;;26.02;10.50;;;-2.10;99.90;;;;;;5036172;28;20033;-67
2023/12/02 00:16:48;;;;;;;23.90;10.27;;;-2.10;99.90;;;;;;5035363;28;20088;-67
2023/12/02 00:19:16;;;;;;;23.90;9.98;;;-2.10;99.90;;;;;;5037518;28;20029;-67
2023/12/02 00:21:41;;;;;;;26.02;11.23;;;-2.10;99.90;;;;;;5043094;28;20453;-67
2023/12/02 00:24:07;;;;;;;24.90;10.40;;;-2.20;99.90;;;;;;5040261;28;20071;-67
2023/12/02 00:26:33;;;;;;;24.95;9.60;;;-2.20;99.90;;;;;;5035120;28;20025;-67
2023/12/02 00:29:00;;;;;;;29.63;11.80;;;-2.20;99.90;;;;;;5043212;28;20087;-66
2023/12/02 00:31:26;;;;;;;22.92;10.43;;;-2.20;99.90;;;;;;5033999;28;20029;-66
2023/12/02 00:33:52;;;;;;;25.05;10.10;;;-2.20;99.90;;;;;;5038261;28;20047;-66
2023/12/02 00:36:19;;;;;;;23.40;9.95;;;-2.30;99.90;;;;;;5041921;28;20029;-67
2023/12/02 00:38:45;;;;;;;24.75;9.18;;;-2.20;99.90;;;;;;5041440;28;20124;-67
2023/12/02 00:41:10;;;;;;;28.10;10.82;;;-2.20;99.90;;;;;;5039348;28;20478;-67
2023/12/02 00:43:36;;;;;;;26.80;11.38;;;-2.10;99.90;;;;;;5042662;28;20475;-67
2023/12/02 00:46:02;;;;;;;27.33;11.02;;;-2.00;99.90;;;;;;5039309;28;20100;-67
2023/12/02 00:48:27;;;;;;;26.60;11.63;;;-2.10;99.90;;;;;;5038392;28;20036;-66
2023/12/02 00:50:53;;;;;;;31.63;11.43;;;-2.20;99.90;;;;;;5044065;28;20428;-66
2023/12/02 00:53:19;;;;;;;25.15;10.70;;;-2.20;99.90;;;;;;5041299;28;20025;-66
2023/12/02 00:55:45;;;;;;;23.58;10.35;;;-2.20;99.90;;;;;;5039846;28;20025;-66
2023/12/02 00:58:11;;;;;;;26.83;10.68;;;-2.20;99.90;;;;;;5043954;28;20098;-67
2023/12/02 01:00:36;;;;;;;25.02;11.00;;;-2.30;99.90;;;;;;5037416;28;20303;-67
2023/12/02 01:03:02;;;;;;;24.17;10.18;;;-2.30;99.90;;;;;;5046553;28;20396;-67
2023/12/02 01:05:27;;;;;;;26.52;11.20;;;-2.30;99.90;;;;;;5043591;28;20074;-66
2023/12/02 01:07:53;;;;;;;27.58;11.00;;;-2.20;99.90;;;;;;5042061;28;20079;-67
2023/12/02 01:10:18;;;;;;;27.80;11.73;;;-2.30;99.90;;;;;;5034369;28;20041;-67
2023/12/02 01:12:44;;;;;;;28.02;11.55;;;-2.30;99.90;;;;;;5039450;28;20108;-69
2023/12/02 01:15:10;;;;;;;26.67;10.20;;;-2.30;99.90;;;;;;5039870;28;20040;-70
2023/12/02 01:17:35;;;;;;;30.25;12.23;;;-2.30;99.90;;;;;;5040032;28;20025;-70
2023/12/02 01:20:01;;;;;;;22.27;10.63;;;-2.30;99.90;;;;;;5045439;28;20029;-70
2023/12/02 01:22:27;;;;;;;27.63;11.13;;;-2.30;99.90;;;;;;5038434;28;20487;-70
2023/12/02 01:24:52;;;;;;;26.88;11.73;;;-2.30;99.90;;;;;;5038671;28;20021;-70
2023/12/02 01:27:18;;;;;;;25.80;10.98;;;-2.30;99.90;;;;;;5041591;28;20025;-70
2023/12/02 01:29:44;;;;;;;25.63;10.75;;;-2.30;99.90;;;;;;5036430;28;20064;-70
2023/12/02 01:32:10;;;;;;;23.08;9.32;;;-2.20;99.90;;;;;;5041873;28;20403;-70
2023/12/02 01:34:35;;;;;;;26.20;10.88;;;-2.20;99.90;;;;;;5029002;28;20029;-69
2023/12/02 01:37:01;;;;;;;24.70;10.25;;;-2.20;99.90;;;;;;5036405;28;20196;-69
2023/12/02 01:39:27;;;;;;;29.25;12.43;;;-2.20;99.90;;;;;;5037608;28;20541;-70
2023/12/02 01:41:55;;;;;;;21.05;8.02;;;-2.20;99.90;;;;;;5029760;28;20026;-70
2023/12/02 01:44:20;;;;;;;26.83;10.77;;;-2.30;99.90;;;;;;5028270;28;20240;-70
2023/12/02 01:46:46;;;;;;;26.60;11.60;;;-2.20;99.90;;;;;;5037649;28;20096;-70
2023/12/02 01:49:12;;;;;;;24.88;10.48;;;-2.20;99.90;;;;;;5038939;28;20091;-70
2023/12/02 01:51:38;;;;;;;26.83;10.82;;;-2.30;99.90;;;;;;5036952;28;20112;-70
2023/12/02 01:54:04;;;;;;;29.92;12.60;;;-2.20;99.90;;;;;;5039462;28;20454;-70
2023/12/02 01:56:30;;;;;;;25.17;10.38;;;-2.20;99.90;;;;;;5038768;28;20451;-70
2023/12/02 01:58:56;;;;;;;26.95;10.93;;;-2.20;99.90;;;;;;5037116;28;20090;-70
2023/12/02 02:01:23;;;;;;;29.60;11.35;;;-2.20;99.90;;;;;;5038021;28;20071;-70
2023/12/02 02:03:50;;;;;;;27.15;10.65;;;-2.20;99.90;;;;;;5038259;28;20504;-70
2023/12/02 02:06:16;;;;;;;24.95;10.93;;;-2.20;99.90;;;;;;5040873;28;20033;-70
2023/12/02 02:08:44;;;;;;;26.90;10.80;;;-2.20;99.90;;;;;;5040244;28;20091;-70
2023/12/02 02:11:09;;;;;;;28.80;11.70;;;-2.20;99.90;;;;;;5037495;28;20075;-70
2023/12/02 02:13:35;;;;;;;29.23;11.05;;;-2.20;99.90;;;;;;5038708;28;20446;-70
2023/12/02 02:16:01;;;;;;;25.30;9.77;;;-2.30;99.90;;;;;;5037399;28;20029;-70
2023/12/02 02:18:28;;;;;;;28.30;10.90;;;-2.30;99.90;;;;;;5039155;28;20029;-70
2023/12/02 02:20:54;;;;;;;28.73;12.07;;;-2.30;99.90;;;;;;5036524;28;20547;-70
2023/12/02 02:23:23;;;;;;;28.08;10.63;;;-2.30;99.90;;;;;;5039337;28;20097;-67
2023/12/02 02:25:52;;;;;;;31.88;12.70;;;-2.30;99.90;;;;;;5035670;28;20032;-66
2023/12/02 02:28:22;;;;;;;29.73;11.18;;;-2.30;99.90;;;;;;5040035;28;20060;-67
2023/12/02 02:30:48;;;;;;;29.42;10.85;;;-2.30;99.90;;;;;;5030516;28;20476;-67
2023/12/02 02:33:16;;;;;;;30.70;11.93;;;-2.30;99.90;;;;;;5040302;28;20079;-66
2023/12/02 02:35:43;;;;;;;28.65;11.63;;;-2.30;99.90;;;;;;5036038;28;20047;-66
2023/12/02 02:38:09;;;;;;;31.65;12.30;;;-2.30;99.90;;;;;;5038690;28;20036;-67
2023/12/02 02:40:34;;;;;;;29.02;10.60;;;-2.30;99.90;;;;;;5035353;28;20515;-66
2023/12/02 02:43:00;;;;;;;29.00;11.63;;;-2.30;99.90;;;;;;5038766;28;20017;-66
2023/12/02 02:45:26;;;;;;;30.10;11.95;;;-2.30;99.90;;;;;;5040981;28;20024;-66
2023/12/02 02:47:52;;;;;;;29.33;10.85;;;-2.30;99.90;;;;;;5043385;28;20108;-67
2023/12/02 02:50:18;;;;;;;28.75;10.48;;;-2.40;99.90;;;;;;5040465;28;20026;-66
2023/12/02 02:52:44;;;;;;;35.67;12.43;;;-2.40;99.90;;;;;;5042897;28;20472;-66
2023/12/02 02:55:09;;;;;;;32.30;12.27;;;-2.40;99.90;;;;;;5039418;28;20068;-67
2023/12/02 02:57:35;;;;;;;31.48;12.20;;;-2.40;99.90;;;;;;5042897;28;20022;-67
2023/12/02 03:00:04;;;;;;;26.42;10.52;;;-2.30;99.90;;;;;;5040323;28;20033;-66
2023/12/02 03:02:29;;;;;;;29.33;11.60;;;-2.30;99.90;;;;;;5043800;28;20410;-66
2023/12/02 03:04:57;;;;;;;32.60;13.25;;;-2.30;99.90;;;;;;5042302;28;20021;-66
2023/12/02 03:07:23;;;;;;;30.55;12.25;;;-2.40;99.90;;;;;;5044261;28;20029;-66
2023/12/02 03:09:49;;;;;;;30.02;11.50;;;-2.40;99.90;;;;;;5040731;28;20544;-66
2023/12/02 03:12:14;;;;;;;29.85;11.45;;;-2.50;99.90;;;;;;5042401;28;20061;-66
2023/12/02 03:14:40;;;;;;;29.95;11.32;;;-2.40;99.90;;;;;;5040594;28;20029;-66
2023/12/02 03:17:06;;;;;;;30.65;10.15;;;-2.50;99.90;;;;;;5042665;28;20400;-66
2023/12/02 03:19:32;;;;;;;32.05;10.85;;;-2.50;99.90;;;;;;5039711;28;20029;-67
2023/12/02 03:21:57;;;;;;;28.08;10.93;;;-2.40;99.90;;;;;;5041005;28;20024;-67
2023/12/02 03:24:23;;;;;;;27.58;10.80;;;-2.40;99.90;;;;;;5041124;28;20460;-67
2023/12/02 03:26:49;;;;;;;35.10;13.43;;;-2.40;99.90;;;;;;5041028;28;20033;-67
2023/12/02 03:29:14;;;;;;;26.38;10.95;;;-2.50;99.90;;;;;;5043316;28;20025;-66
2023/12/02 03:31:45;;;;;;;27.67;11.45;;;-2.50;99.90;;;;;;5038704;28;20031;-66
2023/12/02 03:34:11;;;;;;;29.67;10.95;;;-2.50;99.90;;;;;;5041643;28;20021;-68
2023/12/02 03:36:37;;;;;;;31.45;11.27;;;-2.60;99.90;;;;;;5041110;28;20029;-69
2023/12/02 03:39:03;;;;;;;27.42;10.40;;;-2.60;99.90;;;;;;5041993;28;20036;-69
2023/12/02 03:41:29;;;;;;;28.67;10.35;;;-2.60;99.90;;;;;;5039703;28;20078;-68
2023/12/02 03:43:54;;;;;;;29.45;11.13;;;-2.60;99.90;;;;;;5043544;28;20025;-69
2023/12/02 03:46:22;;;;;;;26.05;9.05;;;-2.70;99.90;;;;;;5040520;28;20033;-69
2023/12/02 03:48:48;;;;;;;30.30;10.57;;;-2.70;99.90;;;;;;5042861;28;20108;-69
2023/12/02 03:51:13;;;;;;;29.75;10.48;;;-2.60;99.90;;;;;;5041220;28;20462;-69
2023/12/02 03:53:39;;;;;;;25.65;9.43;;;-2.60;99.90;;;;;;5041160;28;20029;-69
2023/12/02 03:56:06;;;;;;;26.10;9.05;;;-2.50;99.90;;;;;;5040112;28;20025;-69
2023/12/02 03:58:31;;;;;;;31.33;10.98;;;-2.50;99.90;;;;;;5040854;28;20476;-69
2023/12/02 04:01:00;;;;;;;29.80;10.90;;;-2.40;99.90;;;;;;5040457;28;20054;-69
2023/12/02 04:03:28;;;;;;;24.45;8.80;;;-2.40;99.90;;;;;;5040446;28;20025;-69
2023/12/02 04:05:54;;;;;;;30.67;10.75;;;-2.30;99.90;;;;;;5038444;28;20025;-69
2023/12/02 04:08:19;;;;;;;26.13;10.48;;;-2.40;99.90;;;;;;5042351;28;20025;-69
2023/12/02 04:10:45;;;;;;;27.20;9.90;;;-2.50;99.90;;;;;;5039432;28;20037;-69
2023/12/02 04:13:10;;;;;;;27.52;10.25;;;-2.50;99.90;;;;;;5042315;28;20025;-69
2023/12/02 04:15:38;;;;;;;28.27;11.43;;;-2.50;99.90;;;;;;5039246;28;20025;-69
2023/12/02 04:18:04;;;;;;;26.83;11.13;;;-2.60;99.90;;;;;;5041102;28;20033;-69
2023/12/02 04:20:30;;;;;;;27.20;10.38;;;-2.50;99.90;;;;;;5039588;28;20116;-69
2023/12/02 04:22:55;;;;;;;26.35;10.27;;;-2.60;99.90;;;;;;5040172;28;20500;-69
2023/12/02 04:25:23;;;;;;;27.35;11.50;;;-2.70;99.90;;;;;;5038022;28;20511;-69
2023/12/02 04:27:48;;;;;;;30.60;10.88;;;-2.60;99.90;;;;;;5040414;28;20064;-69
2023/12/02 04:30:14;;;;;;;30.25;11.27;;;-2.70;99.90;;;;;;5040615;28;20060;-69
2023/12/02 04:32:40;;;;;;;25.42;9.90;;;-2.70;99.90;;;;;;5038332;28;20036;-69
2023/12/02 04:35:06;;;;;;;28.00;9.60;;;-2.70;99.90;;;;;;5041045;28;20081;-69
2023/12/02 04:37:32;;;;;;;30.00;10.95;;;-2.70;99.90;;;;;;5038602;28;20029;-69
2023/12/02 04:39:58;;;;;;;29.17;11.60;;;-2.70;99.90;;;;;;5036833;28;20464;-69
2023/12/02 04:42:23;;;;;;;21.45;8.00;;;-2.70;99.90;;;;;;5042706;28;20082;-68
2023/12/02 04:44:49;;;;;;;25.52;9.52;;;-2.70;99.90;;;;;;5038181;28;20025;-68
2023/12/02 04:47:15;;;;;;;26.60;10.10;;;-2.70;99.90;;;;;;5042147;28;20147;-68
2023/12/02 04:49:41;;;;;;;29.00;11.23;;;-2.70;99.90;;;;;;5038227;28;20542;-68
2023/12/02 04:52:06;;;;;;;27.25;9.75;;;-2.80;99.90;;;;;;5041814;28;20033;-68
2023/12/02 04:54:34;;;;;;;28.60;9.98;;;-2.70;99.90;;;;;;5038743;28;20029;-68
2023/12/02 04:57:02;;;;;;;25.40;10.13;;;-2.70;99.90;;;;;;5038892;28;20024;-68
2023/12/02 04:59:28;;;;;;;26.33;9.40;;;-2.60;99.90;;;;;;5036300;28;20056;-68
2023/12/02 05:01:53;;;;;;;21.08;8.65;;;-2.50;99.90;;;;;;5039357;28;20415;-68
2023/12/02 05:04:21;;;;;;;24.58;9.68;;;-2.50;99.90;;;;;;5036778;28;20021;-68
2023/12/02 05:06:47;;;;;;;25.23;9.82;;;-2.50;99.90;;;;;;5040353;28;20128;-68
2023/12/02 05:09:16;;;;;;;22.08;9.00;;;-2.60;99.90;;;;;;5038733;28;20116;-68
2023/12/02 05:11:41;;;;;;;29.30;10.40;;;-2.70;99.90;;;;;;5040527;28;20387;-67
2023/12/02 05:14:07;;;;;;;24.13;9.50;;;-2.80;99.90;;;;;;5038513;28;20021;-68
2023/12/02 05:16:32;;;;;;;27.48;10.75;;;-2.80;99.90;;;;;;5040822;28;20387;-67
2023/12/02 05:18:58;;;;;;;24.92;9.88;;;-2.70;99.90;;;;;;5036408;28;20036;-68
2023/12/02 05:21:24;;;;;;;27.60;10.05;;;-2.70;99.90;;;;;;5039479;28;20112;-68
2023/12/02 05:23:49;;;;;;;27.40;9.80;;;-2.70;99.90;;;;;;5037376;28;20052;-68
2023/12/02 05:26:18;;;;;;;27.80;10.30;;;-2.60;99.90;;;;;;5039294;28;20060;-68
2023/12/02 05:28:43;;;;;;;28.58;10.25;;;-2.60;99.90;;;;;;5036588;28;20061;-68
2023/12/02 05:31:10;;;;;;;26.13;9.88;;;-2.50;99.90;;;;;;5038977;28;20053;-68
2023/12/02 05:33:35;;;;;;;23.52;9.82;;;-2.60;99.90;;;;;;5040158;28;20339;-68
2023/12/02 05:36:01;;;;;;;23.65;9.40;;;-2.60;99.90;;;;;;5037693;28;20473;-68
2023/12/02 05:38:29;;;;;;;23.30;8.85;;;-2.60;99.90;;;;;;5039796;28;20039;-68
2023/12/02 05:40:54;;;;;;;24.48;9.88;;;-2.70;99.90;;;;;;5039158;28;20556;-68
2023/12/02 05:43:20;;;;;;;20.83;8.68;;;-2.70;99.90;;;;;;5038642;28;20212;-68
2023/12/02 05:45:46;;;;;;;23.13;9.27;;;-2.70;99.90;;;;;;5037679;28;20369;-68
2023/12/02 05:48:11;;;;;;;24.75;9.32;;;-2.70;99.90;;;;;;5038536;28;20022;-68
2023/12/02 05:50:37;;;;;;;25.63;9.60;;;-2.70;99.90;;;;;;5039708;28;20036;-68
2023/12/02 05:53:04;;;;;;;24.95;10.23;;;-2.70;99.90;;;;;;5036809;28;20128;-68
2023/12/02 05:55:30;;;;;;;21.58;9.20;;;-2.80;99.90;;;;;;5037955;28;20025;-68
2023/12/02 05:57:56;;;;;;;22.13;9.88;;;-2.80;99.90;;;;;;5038237;28;20029;-68
2023/12/02 06:00:24;;;;;;;21.75;9.00;;;-2.80;99.90;;;;;;5038634;28;20072;-69
2023/12/02 06:02:50;;;;;;;24.98;9.60;;;-2.80;99.90;;;;;;5036905;28;20026;-70
2023/12/02 06:05:15;;;;;;;25.40;10.18;;;-2.80;99.90;;;;;;5039024;28;20430;-69
2023/12/02 06:07:41;;;;;;;22.67;9.23;;;-2.80;99.90;;;;;;5037051;28;20065;-69
2023/12/02 06:10:07;;;;;;;22.92;10.13;;;-2.70;99.90;;;;;;5038828;28;20391;-69
2023/12/02 06:12:33;;;;;;;20.95;9.18;;;-2.70;99.90;;;;;;5038801;28;20060;-69
2023/12/02 06:14:59;;;;;;;21.70;8.10;;;-2.80;99.90;;;;;;5036717;28;20064;-69
2023/12/02 06:17:24;;;;;;;15.05;6.32;;;-2.80;99.90;;;;;;5038560;28;20056;-68
2023/12/02 06:19:50;;;;;;;22.27;8.18;;;-2.80;99.90;;;;;;5037763;28;20424;-69
2023/12/02 06:22:16;;;;;;;22.88;8.88;;;-2.80;99.90;;;;;;5038766;28;20026;-69
2023/12/02 06:24:41;;;;;;;22.38;10.27;;;-2.80;99.90;;;;;;5038643;28;20021;-69
2023/12/02 06:27:07;;;;;;;24.27;9.25;;;-2.80;99.90;;;;;;5038458;28;20029;-69
2023/12/02 06:29:33;;;;;;;25.20;8.95;;;-2.80;99.90;;;;;;5039098;28;20124;-69
2023/12/02 06:31:58;;;;;;;21.98;8.80;;;-2.90;99.90;;;;;;5036152;28;20033;-69
2023/12/02 06:34:24;;;;;;;19.33;7.80;;;-2.90;99.90;;;;;;5038572;28;20100;-69
2023/12/02 06:36:52;;;;;;;21.48;9.13;;;-2.90;99.90;;;;;;5037793;28;20030;-69
2023/12/02 06:39:17;;;;;;;23.30;8.50;;;-3.00;99.90;;;;;;5036822;28;20033;-69
2023/12/02 06:41:44;;;;;;;26.58;10.02;;;-3.00;99.90;;;;;;5038426;28;20057;-69
2023/12/02 06:44:12;;;;;;;21.67;8.60;;;-3.00;99.90;;;;;;5038209;28;20159;-69
2023/12/02 06:46:40;;;;;;;27.48;9.57;;;-2.90;99.90;;;;;;5036339;28;20044;-69
2023/12/02 06:49:05;;;;;;;17.70;7.20;;;-2.90;99.90;;;;;;5039088;28;20048;-69
2023/12/02 06:51:31;;;;;;;23.33;9.38;;;-2.90;99.90;;;;;;5037824;28;20428;-69
2023/12/02 06:53:57;;;;;;;22.35;10.15;;;-2.90;99.90;;;;;;5038594;28;20048;-69
2023/12/02 06:56:24;;;;;;;20.92;7.85;;;-2.90;99.90;;;;;;5037537;28;20052;-69
2023/12/02 06:58:51;;;;;;;22.98;8.48;;;-2.90;99.90;;;;;;5035581;28;20040;-69
2023/12/02 07:01:28;;;;;;;19.77;7.90;;;-3.00;99.90;;;;;;5038162;28;20480;-69
2023/12/02 07:03:55;;;;;;;21.23;8.63;;;-2.90;99.90;;;;;;5030594;28;20079;-70
2023/12/02 07:06:21;;;;;;;20.42;8.45;;;-2.90;99.90;;;;;;5039999;28;20047;-69
2023/12/02 07:08:49;;;;;;;22.08;8.60;;;-2.90;99.90;;;;;;5036743;28;20026;-69
2023/12/02 07:11:15;;;;;;;21.42;8.70;;;-3.00;99.90;;;;;;5038695;28;20052;-69
2023/12/02 07:13:41;;;;;;;20.88;8.05;;;-2.90;99.90;;;;;;5039368;28;20029;-69
2023/12/02 07:16:07;;;;;;;22.13;8.05;;;-2.90;99.90;;;;;;5036834;28;20096;-69
2023/12/02 07:18:33;;;;;;;20.02;7.63;;;-2.90;99.90;;;;;;5039085;28;20511;-69
2023/12/02 07:20:59;;;;;;;21.70;8.68;;;-2.90;99.90;;;;;;5036972;28;20022;-69
2023/12/02 07:23:25;;;;;;;25.70;8.35;;;-2.90;99.90;;;;;;5038521;28;20032;-69
2023/12/02 07:25:52;;;;;;;21.98;9.20;;;-2.90;99.90;;;;;;5036927;28;20481;-69
2023/12/02 07:28:17;;;;;;;21.55;8.82;;;-2.90;99.90;;;;;;5038124;28;20361;-69
2023/12/02 07:30:43;;;;;;;20.30;8.40;;;-2.90;99.90;;;;;;5040464;28;20091;-69
2023/12/02 07:33:09;;;;;;;20.15;7.55;;;-2.90;99.90;;;;;;5040942;28;20083;-69
2023/12/02 07:35:34;;;;;;;19.33;7.38;;;-2.90;99.90;;;;;;5041840;28;20035;-69
2023/12/02 07:38:00;;;;;;;18.58;7.82;;;-2.90;99.90;;;;;;5042081;28;20300;-69
2023/12/02 07:40:28;;;;;;;19.25;8.32;;;-2.90;99.90;;;;;;5037266;28;20029;-69
2023/12/02 07:42:53;;;;;;;20.70;8.15;;;-2.90;99.90;;;;;;5038829;28;20075;-69
2023/12/02 07:45:19;;;;;;;19.25;8.05;;;-3.00;99.90;;;;;;5036557;28;21139;-69
2023/12/02 07:47:44;;;;;;;18.83;7.80;;;-3.00;99.90;;;;;;5035685;28;20025;-69
2023/12/02 07:50:10;;;;;;;18.75;7.05;;;-3.00;99.90;;;;;;5033437;28;20517;-69
2023/12/02 07:52:36;;;;;;;19.20;7.13;;;-2.90;99.90;;;;;;5037173;28;20640;-69
2023/12/02 07:55:02;;;;;;;21.58;8.93;;;-2.90;99.90;;;;;;5036327;28;20022;-69
2023/12/02 07:57:27;;;;;;;20.13;7.53;;;-2.90;99.90;;;;;;5032973;28;20026;-69
2023/12/02 07:59:53;;;;;;;16.75;7.55;;;-2.90;99.90;;;;;;5039276;28;20041;-69
2023/12/02 08:02:19;;;;;;;19.70;7.57;;;-2.90;99.90;;;;;;5035777;28;20086;-69
2023/12/02 08:04:44;;;;;;;18.90;7.60;;;-2.90;99.90;;;;;;5036226;28;20029;-68
2023/12/02 08:07:10;;;;;;;20.13;7.03;;;-2.90;99.90;;;;;;5036542;28;20451;-69
2023/12/02 08:09:35;;;;;;;20.20;8.18;;;-2.80;99.90;;;;;;5035481;28;20036;-69
2023/12/02 08:12:01;;;;;;;17.05;7.30;;;-2.80;99.90;;;;;;5035914;28;20384;-69
2023/12/02 08:14:27;;;;;;;21.92;7.28;;;-2.70;99.90;;;;;;5059112;28;20451;-69
2023/12/02 08:19:29;;;;;;;19.83;7.82;;;-2.70;99.90;;;;;;5802166;22;20050;-68
2023/12/02 08:21:55;;;;;;;20.98;7.93;;;;;;;;;;5022547;28;20089;-68
2023/12/02 08:24:21;;;;;;;22.13;8.07;;;;;;;;;;5039720;28;20057;-69
2023/12/02 08:26:47;;;;;;;19.58;8.10;;;;;;;;;;5038676;28;20056;-69
2023/12/02 08:29:14;;;;;;;19.15;8.02;;;-2.40;99.90;;;;;;5036687;28;20014;-69
2023/12/02 08:31:40;;;;;;;20.52;7.75;;;;;;;;;;5038791;28;20021;-69
2023/12/02 08:34:06;;;;;;;24.08;8.45;;;;;;;;;;5035773;28;20082;-69
2023/12/02 08:36:31;;;;;;;16.85;7.53;;;-2.40;99.90;;;;;;5030575;28;20025;-68
2023/12/02 08:38:57;;;;;;;19.50;7.78;;;-2.30;99.90;;;;;;5022510;28;20010;-68
2023/12/02 08:41:22;;;;;;;21.65;7.80;;;-2.30;99.90;;;;;;5008090;28;20121;-68
2023/12/02 08:43:52;;;;;;;23.90;8.13;;;-2.30;99.90;;;;;;5006260;28;20024;-67
2023/12/02 08:46:19;;;;;;;23.95;8.60;;;-2.20;99.90;;;;;;4984711;28;20046;-68
2023/12/02 08:48:45;;;;;;;22.17;8.50;;;-2.20;99.90;;;;;;4994177;28;20084;-68
2023/12/02 08:51:11;;;;;;;22.48;7.80;;;-2.10;99.90;;;;;;5016172;28;20366;-68
2023/12/02 08:53:39;;;;;;;20.08;7.25;;;-2.00;99.90;;;;;;5008569;28;20080;-69
2023/12/02 08:56:06;;;;;;;22.48;8.13;;;-1.80;99.90;;;;;;5004986;28;20117;-69
2023/12/02 08:58:32;;;;;;;22.02;8.63;;;-1.70;99.90;;;;;;5006176;28;20029;-68
2023/12/02 09:00:57;;;;;;;23.92;8.65;;;-1.70;99.90;;;;;;4993974;28;20100;-69
2023/12/02 09:03:25;;;;;;;23.15;9.10;;;-1.70;99.90;;;;;;4986368;28;20026;-70
2023/12/02 09:05:55;;;;;;;19.42;8.13;;;-1.70;99.90;;;;;;5001201;28;20022;-69
2023/12/02 09:08:21;;;;;;;23.88;9.43;;;-1.60;99.90;;;;;;5001569;28;20100;-70
2023/12/02 09:10:49;;;;;;;19.83;8.15;;;-1.60;99.90;;;;;;4995916;28;20049;-69
2023/12/02 09:13:39;;;;;;;25.48;8.90;;;-1.60;99.90;;;;;;5010670;28;20059;-70
2023/12/02 09:16:05;;;;;;;20.45;8.13;;;-1.50;99.90;;;;;;5010797;28;20033;-69
2023/12/02 09:18:35;;;;;;;23.65;8.48;;;-1.40;99.90;;;;;;5004249;28;20034;-69
2023/12/02 09:21:02;;;;;;;30.70;10.40;;;-1.40;99.90;;;;;;4989955;28;20571;-69
2023/12/02 09:23:28;;;;;;;26.25;10.80;;;-1.60;99.90;;;;;;5001082;28;20030;-69
2023/12/02 09:25:58;;;;;;;27.40;10.52;;;-1.70;99.90;;;;;;4997997;28;20052;-69
2023/12/02 09:28:29;;;;;;;;;;;-1.80;99.90;;;;;;4998479;28;20022;-69
2023/12/02 09:30:55;;;;;;;;;;;-1.70;99.90;;;;;;4996256;28;20399;-68
2023/12/02 09:33:21;;;;;;;29.27;11.65;;;-1.60;99.90;;;;;;4995874;28;19979;-69
2023/12/02 09:35:53;;;;;;;22.85;9.30;;;-1.60;99.90;;;;;;5004668;28;20454;-69
2023/12/02 09:38:19;;;;;;;28.25;10.88;;;-1.40;99.90;;;;;;4999995;28;20026;-69
2023/12/02 09:41:00;;;;;;;17.75;7.32;;;-1.30;99.90;;;;;;4994543;28;20044;-69
2023/12/02 09:43:33;;;;;;;23.60;9.40;;;-1.10;99.90;;;;;;4995517;28;20084;-69
2023/12/02 09:46:05;;;;;;;16.95;5.95;;;-1.10;99.90;;;;;;4997886;28;20023;-69
2023/12/02 09:48:37;;;;;;;29.55;10.63;;;-0.90;99.90;;;;;;5000857;28;20414;-69
2023/12/02 09:51:21;;;;;;;31.13;11.57;;;-0.60;99.90;;;;;;5002486;28;20026;-69
2023/12/02 09:54:11;;;;;;;36.55;12.98;;;-0.50;99.90;;;;;;4998376;28;20465;-72
2023/12/02 09:56:42;;;;;;;32.38;12.70;;;0.00;99.90;;;;;;5006171;28;20390;-70
2023/12/02 09:59:19;;;;;;;31.08;12.05;;;0.90;99.90;;;;;;4997850;28;20030;-71
2023/12/02 10:02:04;;;;;;;33.55;13.20;;;1.50;99.90;;;;;;5004624;28;20389;-71
2023/12/02 10:05:00;;;;;;;32.38;12.98;;;1.90;99.90;;;;;;4992987;28;20114;-70
2023/12/02 10:07:34;;;;;;;33.10;13.95;;;2.00;99.50;;;;;;5000750;28;20529;-71
2023/12/02 10:10:09;;;;;;;31.77;12.57;;;1.70;99.80;;;;;;4994380;28;20018;-72
2023/12/02 10:12:53;;;;;;;35.92;14.18;;;1.50;99.90;;;;;;4997515;28;20022;-69
2023/12/02 10:15:23;;;;;;;31.98;12.40;;;1.30;99.90;;;;;;4995420;28;20034;-69
2023/12/02 10:18:00;;;;;;;34.60;12.77;;;0.90;99.90;;;;;;4991363;28;20433;-69
2023/12/02 10:20:34;;;;;;;30.25;11.40;;;0.50;99.90;;;;;;4980731;28;20532;-70
2023/12/02 10:23:10;;;;;;;30.95;12.23;;;0.70;99.90;;;;;;4993023;28;20015;-69
2023/12/02 10:25:55;;;;;;;32.10;12.35;;;1.10;99.90;;;;;;4994501;28;20026;-69
2023/12/02 10:28:46;;;;;;;29.10;12.00;;;1.80;99.90;;;;;;4994920;28;20025;-69
2023/12/02 10:31:26;;;;;;;27.75;11.00;;;2.20;99.70;;;;;;4995456;28;20030;-69
2023/12/02 10:34:22;;;;;;;27.92;10.55;;;2.50;98.50;;;;;;4982456;28;20512;-65
2023/12/02 10:36:50;;;;;;;23.30;9.30;;;2.30;98.50;;;;;;4995259;28;20038;-65
2023/12/02 10:39:32;;;;;;;32.50;13.57;;;2.40;97.50;;;;;;4987262;28;20030;-66
2023/12/02 10:42:04;;;;;;;27.10;10.18;;;2.50;97.00;;;;;;4997081;28;20370;-66
2023/12/02 10:44:32;;;;;;;28.40;10.98;;;2.80;96.40;;;;;;4993878;28;20548;-66
2023/12/02 10:46:59;;;;;;;30.15;11.45;;;3.00;95.70;;;;;;4984777;28;20033;-67
2023/12/02 10:49:30;;;;;;;27.50;11.27;;;3.20;95.70;;;;;;4978413;28;20085;-65
2023/12/02 10:51:59;;;;;;;26.38;10.27;;;3.40;94.60;;;;;;4996936;28;20069;-68
2023/12/02 10:54:29;;;;;;;22.50;8.60;;;3.60;92.40;;;;;;5002885;28;20025;-68
2023/12/02 10:57:03;;;;;;;;;;;3.30;93.40;;;;;;5005062;28;20535;-68
2023/12/02 10:59:34;;;;;;;27.80;10.45;;;3.10;94.50;;;;;;5000881;28;19905;-68
2023/12/02 11:02:29;;;;;;;32.85;11.95;;;3.20;94.30;;;;;;4987884;28;20030;-67
2023/12/02 11:05:17;;;;;;;22.75;9.68;;;3.40;94.30;;;;;;5005440;28;20014;-67
2023/12/02 11:07:49;;;;;;;21.83;9.63;;;3.90;92.50;;;;;;5001785;28;20096;-67
2023/12/02 11:10:21;;;;;;;24.58;9.95;;;4.10;91.30;;;;;;5007322;28;20026;-67
2023/12/02 11:12:56;;;;;;;22.83;9.65;;;4.20;91.60;;;;;;5007161;28;20053;-68
2023/12/02 11:15:23;;;;;;;23.13;9.65;;;4.50;89.90;;;;;;5004663;28;20447;-67
2023/12/02 11:18:02;;;;;;;21.98;9.23;;;4.60;90.70;;;;;;5005131;28;20030;-70
2023/12/02 11:20:56;;;;;;;20.35;8.82;;;4.50;91.00;;;;;;5001918;28;20057;-67
2023/12/02 11:23:39;;;;;;;17.75;8.27;;;4.70;90.60;;;;;;4997798;28;20042;-67
2023/12/02 11:26:17;;;;;;;18.90;8.15;;;4.80;86.20;;;;;;4988650;28;20109;-67
2023/12/02 11:29:01;;;;;;;14.63;6.53;;;3.90;91.80;;;;;;5002588;28;20027;-69
2023/12/02 11:32:01;;;;;;;20.77;8.30;;;3.10;93.80;;;;;;4998051;28;20069;-69
2023/12/02 11:34:56;;;;;;;20.20;7.85;;;2.20;97.10;;;;;;5001957;28;20052;-70
2023/12/02 11:37:51;;;;;;;21.33;8.48;;;2.30;98.60;;;;;;4996812;28;20030;-69
2023/12/02 11:40:46;;;;;;;23.65;8.32;;;2.90;97.00;;;;;;4992529;28;20049;-68
2023/12/02 11:43:23;;;;;;;21.88;8.00;;;4.00;95.40;;;;;;5007275;28;20032;-67
2023/12/02 11:45:56;;;;;;;21.35;9.05;;;4.90;90.40;;;;;;5001542;28;20030;-66
2023/12/02 11:48:45;;;;;;;20.25;8.98;;;5.20;86.80;;;;;;4995842;28;20030;-66
2023/12/02 11:51:33;;;;;;;21.00;8.18;;;5.20;88.50;;;;;;5002275;28;20030;-66
2023/12/02 11:54:41;;;;;;;22.55;9.23;;;5.50;85.80;;;;;;5003613;28;20077;-67
2023/12/02 11:57:32;;;;;;;18.38;7.80;;;5.70;81.60;;;;;;5002659;28;20473;-69
2023/12/02 12:00:07;;;;;;;19.42;8.32;;;5.00;88.10;;;;;;4995516;28;20512;-69
2023/12/02 12:03:01;;;;;;;17.38;6.22;;;4.90;88.60;;;;;;4992580;28;20026;-69
2023/12/02 12:05:37;;;;;;;16.52;6.93;;;4.80;87.00;;;;;;4998425;28;20021;-69
2023/12/02 12:08:18;;;;;;;20.05;7.45;;;4.00;91.50;;;;;;4997777;28;20109;-69
2023/12/02 12:10:46;;;;;;;15.48;5.30;;;3.10;94.40;;;;;;4999386;28;20487;-69
2023/12/02 12:13:18;;;;;;;20.20;7.30;;;2.70;96.40;;;;;;4999478;28;20030;-69
2023/12/02 12:15:44;;;;;;;18.58;7.68;;;2.80;96.30;;;;;;4995676;28;20030;-70
2023/12/02 12:18:10;;;;;;;19.67;7.97;;;3.20;96.40;;;;;;4997685;28;20026;-70
2023/12/02 12:20:36;;;;;;;18.92;6.63;;;3.80;94.00;;;;;;5000771;28;20045;-70
2023/12/02 12:23:02;;;;;;;20.58;8.70;;;4.30;92.40;;;;;;4996438;28;20026;-69
2023/12/02 12:25:31;;;;;;;20.38;8.30;;;4.50;92.10;;;;;;4999023;28;20018;-69
2023/12/02 12:28:02;;;;;;;21.35;8.35;;;4.80;91.30;;;;;;4997541;28;20110;-67
2023/12/02 12:30:42;;;;;;;17.95;8.38;;;5.30;89.00;;;;;;4995546;28;20022;-69
2023/12/02 12:33:11;;;;;;;14.00;5.73;;;5.60;86.40;;;;;;4981394;28;20034;-67
2023/12/02 12:35:38;;;;;;;20.33;8.00;;;5.50;85.10;;;;;;5002787;28;20031;-69
2023/12/02 12:38:04;;;;;;;13.52;5.13;;;5.30;89.70;;;;;;5001715;28;20080;-69
2023/12/02 12:40:32;;;;;;;17.25;7.75;;;5.60;84.90;;;;;;4995289;28;20441;-69
2023/12/02 12:42:57;;;;;;;19.00;8.13;;;5.20;85.70;;;;;;5002029;28;20089;-69
2023/12/02 12:45:23;;;;;;;17.50;7.20;;;4.80;90.60;;;;;;4999960;28;20018;-69
2023/12/02 12:47:50;;;;;;;15.57;6.25;;;5.10;90.90;;;;;;4999648;28;20022;-69